createdAt,value
2019-02-25T00:00:01.000Z,-1.312
2019-02-25T00:01:02.000Z,-1.312
2019-02-25T00:02:01.000Z,-1.25
2019-02-25T00:03:01.000Z,-1.25
2019-02-25T00:04:01.000Z,-1.187
2019-02-25T00:05:02.000Z,-1.25
2019-02-25T00:06:01.000Z,-1.312
2019-02-25T00:07:01.000Z,-1.312
2019-02-25T00:08:01.000Z,-1.375
2019-02-25T00:09:02.000Z,-1.437
2019-02-25T00:10:01.000Z,-1.562
2019-02-25T00:11:01.000Z,-1.5
2019-02-25T00:12:01.000Z,-1.562
2019-02-25T00:13:01.000Z,-1.562
2019-02-25T00:14:01.000Z,-1.562
2019-02-25T00:15:01.000Z,-1.562
2019-02-25T00:16:02.000Z,-1.562
2019-02-25T00:17:01.000Z,-1.625
2019-02-25T00:18:02.000Z,-1.625
2019-02-25T00:19:01.000Z,-1.687
2019-02-25T00:20:02.000Z,-1.687
2019-02-25T00:21:01.000Z,-1.687
2019-02-25T00:22:02.000Z,-1.687
2019-02-25T00:23:01.000Z,-1.687
2019-02-25T00:24:02.000Z,-1.75
2019-02-25T00:25:01.000Z,-1.687
2019-02-25T00:26:01.000Z,-1.687
2019-02-25T00:27:01.000Z,-1.687
2019-02-25T00:28:01.000Z,-1.687
2019-02-25T00:29:01.000Z,-1.75
2019-02-25T00:30:01.000Z,-1.687
2019-02-25T00:31:01.000Z,-1.687
2019-02-25T00:32:01.000Z,-1.687
2019-02-25T00:33:01.000Z,-1.687
2019-02-25T00:34:01.000Z,-1.687
2019-02-25T00:35:01.000Z,-1.687
2019-02-25T00:36:01.000Z,-1.625
2019-02-25T00:37:01.000Z,-1.625
2019-02-25T00:38:02.000Z,-1.562
2019-02-25T00:39:01.000Z,-1.562
2019-02-25T00:40:01.000Z,-1.625
2019-02-25T00:41:02.000Z,-1.625
2019-02-25T00:42:02.000Z,-1.625
2019-02-25T00:43:01.000Z,-1.687
2019-02-25T00:44:01.000Z,-1.687
2019-02-25T00:45:02.000Z,-1.687
2019-02-25T00:46:01.000Z,-1.625
2019-02-25T00:47:01.000Z,-1.625
2019-02-25T00:48:01.000Z,-1.625
2019-02-25T00:49:01.000Z,-1.562
2019-02-25T00:50:01.000Z,-1.562
2019-02-25T00:51:02.000Z,-1.5
2019-02-25T00:52:01.000Z,-1.437
2019-02-25T00:53:01.000Z,-1.437
2019-02-25T00:54:02.000Z,-1.437
2019-02-25T00:55:01.000Z,-1.437
2019-02-25T00:56:01.000Z,-1.437
2019-02-25T00:57:01.000Z,-1.437
2019-02-25T00:58:01.000Z,-1.5
2019-02-25T00:59:02.000Z,-1.562
2019-02-25T01:00:02.000Z,-1.562
2019-02-25T01:01:01.000Z,-1.687
2019-02-25T01:02:02.000Z,-1.75
2019-02-25T01:03:01.000Z,-1.812
2019-02-25T01:04:01.000Z,-1.812
2019-02-25T01:05:01.000Z,-1.875
2019-02-25T01:06:01.000Z,-1.875
2019-02-25T01:07:02.000Z,-1.875
2019-02-25T01:08:01.000Z,-1.875
2019-02-25T01:09:01.000Z,-1.812
2019-02-25T01:10:01.000Z,-1.875
2019-02-25T01:11:02.000Z,-1.812
2019-02-25T01:12:01.000Z,-1.812
2019-02-25T01:13:01.000Z,-1.812
2019-02-25T01:14:02.000Z,-1.812
2019-02-25T01:15:01.000Z,-1.75
2019-02-25T01:16:01.000Z,-1.687
2019-02-25T01:17:01.000Z,-1.687
2019-02-25T01:18:02.000Z,-1.687
2019-02-25T01:19:01.000Z,-1.687
2019-02-25T01:20:01.000Z,-1.687
2019-02-25T01:21:01.000Z,-1.625
2019-02-25T01:22:01.000Z,-1.625
2019-02-25T01:23:02.000Z,-1.625
2019-02-25T01:24:01.000Z,-1.625
2019-02-25T01:25:01.000Z,-1.687
2019-02-25T01:26:01.000Z,-1.687
2019-02-25T01:27:01.000Z,-1.687
2019-02-25T01:28:02.000Z,-1.75
2019-02-25T01:29:01.000Z,-1.812
2019-02-25T01:30:01.000Z,-1.875
2019-02-25T01:31:01.000Z,-1.937
2019-02-25T01:32:01.000Z,-1.937
2019-02-25T01:33:01.000Z,-2
2019-02-25T01:34:02.000Z,-2
2019-02-25T01:35:01.000Z,-2
2019-02-25T01:36:01.000Z,-2
2019-02-25T01:37:01.000Z,-2.062
2019-02-25T01:38:01.000Z,-2.125
2019-02-25T01:39:01.000Z,-2.125
2019-02-25T01:40:01.000Z,-2.062
2019-02-25T01:41:01.000Z,-2.062
2019-02-25T01:42:01.000Z,-2.062
2019-02-25T01:43:01.000Z,-2.125
2019-02-25T01:44:01.000Z,-2.125
2019-02-25T01:45:01.000Z,-2.125
2019-02-25T01:46:01.000Z,-2.187
2019-02-25T01:47:02.000Z,-2.125
2019-02-25T01:48:02.000Z,-2.187
2019-02-25T01:49:01.000Z,-2.25
2019-02-25T01:50:01.000Z,-2.312
2019-02-25T01:51:02.000Z,-2.312
2019-02-25T01:52:01.000Z,-2.312
2019-02-25T01:53:01.000Z,-2.375
2019-02-25T01:54:02.000Z,-2.375
2019-02-25T01:55:01.000Z,-2.312
2019-02-25T01:56:02.000Z,-2.312
2019-02-25T01:57:01.000Z,-2.312
2019-02-25T01:58:01.000Z,-2.312
2019-02-25T01:59:01.000Z,-2.25
2019-02-25T02:00:01.000Z,-2.25
2019-02-25T02:01:01.000Z,-2.25
2019-02-25T02:02:02.000Z,-2.25
2019-02-25T02:03:01.000Z,-2.312
2019-02-25T02:04:01.000Z,-2.312
2019-02-25T02:05:02.000Z,-2.312
2019-02-25T02:06:01.000Z,-2.312
2019-02-25T02:07:02.000Z,-2.312
2019-02-25T02:08:01.000Z,-2.25
2019-02-25T02:09:01.000Z,-2.25
2019-02-25T02:10:01.000Z,-2.25
2019-02-25T02:11:01.000Z,-2.25
2019-02-25T02:12:02.000Z,-2.25
2019-02-25T02:13:01.000Z,-2.25
2019-02-25T02:14:01.000Z,-2.25
2019-02-25T02:15:02.000Z,-2.312
2019-02-25T02:16:01.000Z,-2.312
2019-02-25T02:17:01.000Z,-2.312
2019-02-25T02:18:02.000Z,-2.25
2019-02-25T02:19:01.000Z,-2.25
2019-02-25T02:20:01.000Z,-2.25
2019-02-25T02:21:02.000Z,-2.25
2019-02-25T02:22:01.000Z,-2.187
2019-02-25T02:23:01.000Z,-2.25
2019-02-25T02:24:01.000Z,-2.187
2019-02-25T02:25:01.000Z,-2.187
2019-02-25T02:26:02.000Z,-2.187
2019-02-25T02:27:01.000Z,-2.25
2019-02-25T02:28:01.000Z,-2.25
2019-02-25T02:29:02.000Z,-2.25
2019-02-25T02:30:02.000Z,-2.25
2019-02-25T02:31:01.000Z,-2.312
2019-02-25T02:32:01.000Z,-2.25
2019-02-25T02:33:02.000Z,-2.187
2019-02-25T02:34:01.000Z,-2.125
2019-02-25T02:35:01.000Z,-2.125
2019-02-25T02:36:02.000Z,-2.125
2019-02-25T02:37:01.000Z,-2
2019-02-25T02:38:01.000Z,-2
2019-02-25T02:39:02.000Z,-2.062
2019-02-25T02:40:01.000Z,-2.062
2019-02-25T02:41:01.000Z,-2
2019-02-25T02:42:02.000Z,-2
2019-02-25T02:43:01.000Z,-2
2019-02-25T02:44:01.000Z,-1.937
2019-02-25T02:45:02.000Z,-1.937
2019-02-25T02:46:01.000Z,-1.937
2019-02-25T02:47:01.000Z,-1.875
2019-02-25T02:48:01.000Z,-1.875
2019-02-25T02:49:01.000Z,-1.875
2019-02-25T02:50:02.000Z,-1.937
2019-02-25T02:51:01.000Z,-1.937
2019-02-25T02:52:02.000Z,-2
2019-02-25T02:53:01.000Z,-2
2019-02-25T02:54:01.000Z,-2.062
2019-02-25T02:55:02.000Z,-2.062
2019-02-25T02:56:01.000Z,-2.125
2019-02-25T02:57:02.000Z,-2.125
2019-02-25T02:58:01.000Z,-2.125
2019-02-25T02:59:01.000Z,-2.187
2019-02-25T03:00:02.000Z,-2.187
2019-02-25T03:01:01.000Z,-2.187
2019-02-25T03:02:01.000Z,-2.187
2019-02-25T03:03:02.000Z,-2.187
2019-02-25T03:04:01.000Z,-2.187
2019-02-25T03:05:02.000Z,-2.25
2019-02-25T03:06:01.000Z,-2.187
2019-02-25T03:07:01.000Z,-2.25
2019-02-25T03:08:02.000Z,-2.25
2019-02-25T03:09:01.000Z,-2.25
2019-02-25T03:10:01.000Z,-2.312
2019-02-25T03:11:02.000Z,-2.25
2019-02-25T03:12:01.000Z,-2.187
2019-02-25T03:13:01.000Z,-2.125
2019-02-25T03:14:02.000Z,-2.062
2019-02-25T03:15:01.000Z,-2
2019-02-25T03:16:01.000Z,-2
2019-02-25T03:17:02.000Z,-1.937
2019-02-25T03:18:01.000Z,-1.812
2019-02-25T03:19:02.000Z,-1.75
2019-02-25T03:20:01.000Z,-1.687
2019-02-25T03:21:01.000Z,-1.687
2019-02-25T03:22:02.000Z,-1.687
2019-02-25T03:23:01.000Z,-1.625
2019-02-25T03:24:01.000Z,-1.562
2019-02-25T03:25:02.000Z,-1.562
2019-02-25T03:26:01.000Z,-1.5
2019-02-25T03:27:02.000Z,-1.5
2019-02-25T03:28:01.000Z,-1.5
2019-02-25T03:29:01.000Z,-1.562
2019-02-25T03:30:01.000Z,-1.562
2019-02-25T03:31:01.000Z,-1.562
2019-02-25T03:32:02.000Z,-1.562
2019-02-25T03:33:01.000Z,-1.625
2019-02-25T03:34:01.000Z,-1.562
2019-02-25T03:35:01.000Z,-1.5
2019-02-25T03:36:02.000Z,-1.5
2019-02-25T03:37:01.000Z,-1.437
2019-02-25T03:38:01.000Z,-1.437
2019-02-25T03:39:02.000Z,-1.375
2019-02-25T03:40:01.000Z,-1.312
2019-02-25T03:41:01.000Z,-1.312
2019-02-25T03:42:01.000Z,-1.187
2019-02-25T03:43:02.000Z,-1.187
2019-02-25T03:44:01.000Z,-1.187
2019-02-25T03:45:01.000Z,-1.187
2019-02-25T03:46:02.000Z,-1.25
2019-02-25T03:47:01.000Z,-1.25
2019-02-25T03:48:01.000Z,-1.187
2019-02-25T03:49:02.000Z,-1.187
2019-02-25T03:50:01.000Z,-1.125
2019-02-25T03:51:01.000Z,-1.187
2019-02-25T03:52:01.000Z,-1.125
2019-02-25T03:53:01.000Z,-1.187
2019-02-25T03:54:01.000Z,-1.187
2019-02-25T03:55:01.000Z,-1.25
2019-02-25T03:56:01.000Z,-1.25
2019-02-25T03:57:01.000Z,-1.312
2019-02-25T03:58:02.000Z,-1.312
2019-02-25T03:59:01.000Z,-1.312
2019-02-25T04:00:01.000Z,-1.375
2019-02-25T04:01:01.000Z,-1.375
2019-02-25T04:02:01.000Z,-1.437
2019-02-25T04:03:01.000Z,-1.5
2019-02-25T04:04:02.000Z,-1.562
2019-02-25T04:05:01.000Z,-1.625
2019-02-25T04:06:01.000Z,-1.625
2019-02-25T04:07:01.000Z,-1.687
2019-02-25T04:08:01.000Z,-1.625
2019-02-25T04:09:02.000Z,-1.625
2019-02-25T04:10:01.000Z,-1.687
2019-02-25T04:11:01.000Z,-1.687
2019-02-25T04:12:01.000Z,-1.687
2019-02-25T04:13:01.000Z,-1.687
2019-02-25T04:14:01.000Z,-1.75
2019-02-25T04:15:02.000Z,-1.687
2019-02-25T04:16:01.000Z,-1.687
2019-02-25T04:17:01.000Z,-1.75
2019-02-25T04:18:01.000Z,-1.812
2019-02-25T04:19:02.000Z,-1.812
2019-02-25T04:20:01.000Z,-1.875
2019-02-25T04:21:01.000Z,-1.937
2019-02-25T04:22:01.000Z,-1.875
2019-02-25T04:23:01.000Z,-1.812
2019-02-25T04:24:01.000Z,-1.875
2019-02-25T04:25:01.000Z,-1.937
2019-02-25T04:26:01.000Z,-2
2019-02-25T04:27:02.000Z,-2
2019-02-25T04:28:01.000Z,-2.062
2019-02-25T04:29:01.000Z,-2.062
2019-02-25T04:30:01.000Z,-2.062
2019-02-25T04:31:02.000Z,-2.062
2019-02-25T04:32:01.000Z,-2.125
2019-02-25T04:33:01.000Z,-2.125
2019-02-25T04:34:02.000Z,-2.187
2019-02-25T04:35:01.000Z,-2.187
2019-02-25T04:36:01.000Z,-2.125
2019-02-25T04:37:01.000Z,-2.062
2019-02-25T04:38:02.000Z,-1.812
2019-02-25T04:39:01.000Z,-1.687
2019-02-25T04:40:01.000Z,-1.562
2019-02-25T04:41:02.000Z,-1.437
2019-02-25T04:42:01.000Z,-1.312
2019-02-25T04:43:02.000Z,-1.312
2019-02-25T04:44:01.000Z,-1.375
2019-02-25T04:45:01.000Z,-1.437
2019-02-25T04:46:01.000Z,-1.562
2019-02-25T04:47:02.000Z,-1.562
2019-02-25T04:48:01.000Z,-1.562
2019-02-25T04:49:01.000Z,-1.562
2019-02-25T04:50:02.000Z,-1.562
2019-02-25T04:51:01.000Z,-1.562
2019-02-25T04:52:01.000Z,-1.562
2019-02-25T04:53:02.000Z,-1.562
2019-02-25T04:54:01.000Z,-1.5
2019-02-25T04:55:01.000Z,-1.375
2019-02-25T04:56:02.000Z,-1.375
2019-02-25T04:57:01.000Z,-1.312
2019-02-25T04:58:02.000Z,-1.312
2019-02-25T04:59:01.000Z,-1.312
2019-02-25T05:00:01.000Z,-1.062
2019-02-25T05:01:01.000Z,-0.937
2019-02-25T05:02:01.000Z,-0.937
2019-02-25T05:03:01.000Z,-0.937
2019-02-25T05:04:01.000Z,-0.937
2019-02-25T05:05:02.000Z,-0.937
2019-02-25T05:06:01.000Z,-1
2019-02-25T05:07:01.000Z,-1.062
2019-02-25T05:08:02.000Z,-1.125
2019-02-25T05:09:01.000Z,-1.125
2019-02-25T05:10:01.000Z,-1.125
2019-02-25T05:11:02.000Z,-1.125
2019-02-25T05:12:01.000Z,-1.187
2019-02-25T05:13:01.000Z,-1.187
2019-02-25T05:14:02.000Z,-1.25
2019-02-25T05:15:01.000Z,-1.312
2019-02-25T05:16:01.000Z,-1.437
2019-02-25T05:17:01.000Z,-1.562
2019-02-25T05:18:01.000Z,-1.625
2019-02-25T05:19:02.000Z,-1.75
2019-02-25T05:20:01.000Z,-1.812
2019-02-25T05:21:01.000Z,-1.875
2019-02-25T05:22:02.000Z,-1.875
2019-02-25T05:23:01.000Z,-1.937
2019-02-25T05:24:01.000Z,-2
2019-02-25T05:25:01.000Z,-2.125
2019-02-25T05:26:01.000Z,-2.187
2019-02-25T05:27:01.000Z,-2.187
2019-02-25T05:28:02.000Z,-2.187
2019-02-25T05:29:01.000Z,-2.25
2019-02-25T05:30:01.000Z,-2.25
2019-02-25T05:31:01.000Z,-2.187
2019-02-25T05:32:01.000Z,-2.125
2019-02-25T05:33:01.000Z,-2.062
2019-02-25T05:34:01.000Z,-2
2019-02-25T05:35:01.000Z,-1.875
2019-02-25T05:36:01.000Z,-1.625
2019-02-25T05:37:01.000Z,-1.625
2019-02-25T05:38:01.000Z,-1.562
2019-02-25T05:39:02.000Z,-1.562
2019-02-25T05:40:01.000Z,-1.625
2019-02-25T05:41:01.000Z,-1.5
2019-02-25T05:43:01.000Z,-1.312
2019-02-25T05:44:02.000Z,-1.312
2019-02-25T05:45:02.000Z,-1.312
2019-02-25T05:46:01.000Z,-1.312
2019-02-25T05:47:01.000Z,-1.187
2019-02-25T05:48:02.000Z,-1.187
2019-02-25T05:49:01.000Z,-1.312
2019-02-25T05:50:02.000Z,-1.375
2019-02-25T05:51:01.000Z,-1.437
2019-02-25T05:52:02.000Z,-1.437
2019-02-25T05:53:01.000Z,-1.562
2019-02-25T05:54:01.000Z,-1.625
2019-02-25T05:55:02.000Z,-1.5
2019-02-25T05:56:01.000Z,-1.437
2019-02-25T05:57:02.000Z,-1.375
2019-02-25T05:58:01.000Z,-1.437
2019-02-25T05:59:01.000Z,-1.5
2019-02-25T06:00:02.000Z,-1.437
2019-02-25T06:01:01.000Z,-1.5
2019-02-25T06:02:01.000Z,-1.5
2019-02-25T06:03:02.000Z,-1.562
2019-02-25T06:04:01.000Z,-1.562
2019-02-25T06:05:01.000Z,-1.562
2019-02-25T06:06:02.000Z,-1.437
2019-02-25T06:07:01.000Z,-1.5
2019-02-25T06:08:01.000Z,-1.375
2019-02-25T06:09:02.000Z,-1.312
2019-02-25T06:10:01.000Z,-1.062
2019-02-25T06:11:01.000Z,-1
2019-02-25T06:12:02.000Z,-0.812
2019-02-25T06:13:01.000Z,-0.562
2019-02-25T06:14:01.000Z,-0.312
2019-02-25T06:15:01.000Z,-0.25
2019-02-25T06:16:02.000Z,-0.187
2019-02-25T06:17:01.000Z,-0.187
2019-02-25T06:18:02.000Z,-0.062
2019-02-25T06:19:01.000Z,-0.125
2019-02-25T06:20:01.000Z,-0.125
2019-02-25T06:21:02.000Z,-0.062
2019-02-25T06:22:01.000Z,0.125
2019-02-25T06:23:01.000Z,0.187
2019-02-25T06:24:01.000Z,0.312
2019-02-25T06:25:01.000Z,0.375
2019-02-25T06:26:01.000Z,0.437
2019-02-25T06:27:01.000Z,0.5
2019-02-25T06:28:01.000Z,0.625
2019-02-25T06:29:02.000Z,0.75
2019-02-25T06:30:01.000Z,0.812
2019-02-25T06:31:01.000Z,0.812
2019-02-25T06:32:02.000Z,0.812
2019-02-25T06:33:01.000Z,0.75
2019-02-25T06:34:01.000Z,0.75
2019-02-25T06:35:02.000Z,0.812
2019-02-25T06:36:01.000Z,0.875
2019-02-25T06:37:01.000Z,0.875
2019-02-25T06:38:01.000Z,1
2019-02-25T06:39:01.000Z,1.062
2019-02-25T06:40:02.000Z,1.187
2019-02-25T06:41:01.000Z,1.312
2019-02-25T06:42:01.000Z,1.437
2019-02-25T06:43:02.000Z,1.5
2019-02-25T06:44:01.000Z,1.562
2019-02-25T06:45:01.000Z,1.687
2019-02-25T06:46:01.000Z,1.687
2019-02-25T06:47:01.000Z,1.687
2019-02-25T06:48:01.000Z,1.687
2019-02-25T06:49:01.000Z,1.75
2019-02-25T06:50:01.000Z,1.75
2019-02-25T06:51:02.000Z,1.812
2019-02-25T06:52:01.000Z,1.812
2019-02-25T06:53:01.000Z,1.937
2019-02-25T06:54:02.000Z,1.937
2019-02-25T06:55:01.000Z,2.062
2019-02-25T06:56:02.000Z,2.062
2019-02-25T06:57:01.000Z,2.062
2019-02-25T06:58:01.000Z,2.125
2019-02-25T06:59:02.000Z,2.125
2019-02-25T07:00:01.000Z,2.125
2019-02-25T07:01:01.000Z,2.312
2019-02-25T07:02:02.000Z,2.437
2019-02-25T07:03:01.000Z,2.562
2019-02-25T07:04:01.000Z,2.562
2019-02-25T07:05:01.000Z,2.812
2019-02-25T07:06:02.000Z,3
2019-02-25T07:07:01.000Z,3.125
2019-02-25T07:08:01.000Z,3.25
2019-02-25T07:09:02.000Z,3.437
2019-02-25T07:10:01.000Z,3.5
2019-02-25T07:11:01.000Z,3.562
2019-02-25T07:12:01.000Z,3.625
2019-02-25T07:13:01.000Z,3.687
2019-02-25T07:14:02.000Z,3.812
2019-02-25T07:15:01.000Z,3.875
2019-02-25T07:16:01.000Z,3.812
2019-02-25T07:17:01.000Z,3.812
2019-02-25T07:18:01.000Z,3.937
2019-02-25T07:19:01.000Z,4
2019-02-25T07:20:01.000Z,4
2019-02-25T07:21:01.000Z,4
2019-02-25T07:22:01.000Z,4
2019-02-25T07:23:02.000Z,4.125
2019-02-25T07:24:01.000Z,4.312
2019-02-25T07:25:01.000Z,4.562
2019-02-25T07:26:02.000Z,4.687
2019-02-25T07:27:01.000Z,4.812
2019-02-25T07:28:01.000Z,4.937
2019-02-25T07:29:02.000Z,5
2019-02-25T07:30:01.000Z,5.125
2019-02-25T07:31:01.000Z,5.187
2019-02-25T07:32:02.000Z,5.25
2019-02-25T07:33:01.000Z,5.25
2019-02-25T07:34:01.000Z,5.312
2019-02-25T07:35:02.000Z,5.375
2019-02-25T07:36:01.000Z,5.375
2019-02-25T07:37:01.000Z,5.5
2019-02-25T07:38:01.000Z,5.562
2019-02-25T07:39:01.000Z,5.5
2019-02-25T07:40:02.000Z,5.625
2019-02-25T07:41:01.000Z,5.75
2019-02-25T07:42:01.000Z,5.937
2019-02-25T07:43:02.000Z,6.062
2019-02-25T07:44:01.000Z,6.187
2019-02-25T07:45:01.000Z,6.312
2019-02-25T07:46:01.000Z,6.375
2019-02-25T07:47:01.000Z,6.375
2019-02-25T07:48:01.000Z,6.375
2019-02-25T07:49:02.000Z,6.437
2019-02-25T07:50:01.000Z,6.5
2019-02-25T07:51:01.000Z,6.625
2019-02-25T07:52:01.000Z,6.687
2019-02-25T07:53:01.000Z,6.812
2019-02-25T07:54:02.000Z,6.937
2019-02-25T07:55:01.000Z,7
2019-02-25T07:56:01.000Z,7.062
2019-02-25T07:57:01.000Z,7.062
2019-02-25T07:58:02.000Z,7
2019-02-25T07:59:01.000Z,6.812
2019-02-25T08:00:01.000Z,6.625
2019-02-25T08:01:02.000Z,6.437
2019-02-25T08:02:01.000Z,6.437
2019-02-25T08:03:01.000Z,6.125
2019-02-25T08:04:02.000Z,5.937
2019-02-25T08:05:01.000Z,5.875
2019-02-25T08:06:02.000Z,5.937
2019-02-25T08:07:01.000Z,6
2019-02-25T08:08:01.000Z,6.062
2019-02-25T08:09:01.000Z,6.062
2019-02-25T08:10:02.000Z,6.187
2019-02-25T08:11:01.000Z,6.25
2019-02-25T08:12:01.000Z,6.25
2019-02-25T08:13:02.000Z,6.187
2019-02-25T08:14:01.000Z,6.187
2019-02-25T08:15:02.000Z,6.187
2019-02-25T08:16:01.000Z,6
2019-02-25T08:17:01.000Z,5.812
2019-02-25T08:18:01.000Z,5.625
2019-02-25T08:19:01.000Z,5.562
2019-02-25T08:20:01.000Z,5.375
2019-02-25T08:21:01.000Z,5.187
2019-02-25T08:22:01.000Z,4.937
2019-02-25T08:23:01.000Z,4.75
2019-02-25T08:24:01.000Z,4.625
2019-02-25T08:25:01.000Z,4.5
2019-02-25T08:26:02.000Z,4.5
2019-02-25T08:27:01.000Z,4.375
2019-02-25T08:28:01.000Z,4.312
2019-02-25T08:29:02.000Z,4.25
2019-02-25T08:30:01.000Z,4.187
2019-02-25T08:31:01.000Z,4.25
2019-02-25T08:32:02.000Z,4.312
2019-02-25T08:33:01.000Z,4.312
2019-02-25T08:34:01.000Z,4.312
2019-02-25T08:35:01.000Z,4.312
2019-02-25T08:36:01.000Z,4.375
2019-02-25T08:37:01.000Z,4.437
2019-02-25T08:38:01.000Z,4.437
2019-02-25T08:39:02.000Z,4.437
2019-02-25T08:40:01.000Z,4.5
2019-02-25T08:41:01.000Z,4.562
2019-02-25T08:42:01.000Z,4.562
2019-02-25T08:43:01.000Z,4.625
2019-02-25T08:44:02.000Z,4.625
2019-02-25T08:45:01.000Z,4.625
2019-02-25T08:46:01.000Z,4.687
2019-02-25T08:47:02.000Z,4.625
2019-02-25T08:48:01.000Z,4.625
2019-02-25T08:50:01.000Z,4.625
2019-02-25T08:51:01.000Z,4.625
2019-02-25T08:52:02.000Z,4.687
2019-02-25T08:53:01.000Z,4.75
2019-02-25T08:54:01.000Z,4.75
2019-02-25T08:55:01.000Z,4.812
2019-02-25T08:56:01.000Z,4.875
2019-02-25T08:57:01.000Z,4.937
2019-02-25T08:58:02.000Z,5
2019-02-25T08:59:01.000Z,5
2019-02-25T09:00:01.000Z,5.125
2019-02-25T09:01:01.000Z,5.125
2019-02-25T09:02:01.000Z,5.187
2019-02-25T09:03:02.000Z,5.25
2019-02-25T09:04:01.000Z,5.187
2019-02-25T09:05:01.000Z,5.187
2019-02-25T09:06:02.000Z,5.25
2019-02-25T09:07:01.000Z,5.187
2019-02-25T09:08:01.000Z,5.25
2019-02-25T09:09:02.000Z,5.312
2019-02-25T09:10:01.000Z,5.312
2019-02-25T09:11:02.000Z,5.375
2019-02-25T09:12:01.000Z,5.375
2019-02-25T09:13:02.000Z,5.375
2019-02-25T09:14:01.000Z,5.437
2019-02-25T09:15:01.000Z,5.5
2019-02-25T09:16:02.000Z,5.562
2019-02-25T09:17:01.000Z,5.562
2019-02-25T09:18:01.000Z,5.562
2019-02-25T09:19:01.000Z,5.687
2019-02-25T09:20:01.000Z,5.75
2019-02-25T09:21:02.000Z,5.812
2019-02-25T09:22:01.000Z,5.812
2019-02-25T09:23:01.000Z,5.875
2019-02-25T09:24:01.000Z,5.937
2019-02-25T09:25:01.000Z,6
2019-02-25T09:26:01.000Z,6.062
2019-02-25T09:27:01.000Z,6.125
2019-02-25T09:28:01.000Z,6.187
2019-02-25T09:29:02.000Z,6.25
2019-02-25T09:30:01.000Z,6.312
2019-02-25T09:31:01.000Z,6.375
2019-02-25T09:32:01.000Z,6.437
2019-02-25T09:33:01.000Z,6.5
2019-02-25T09:34:01.000Z,6.5
2019-02-25T09:35:02.000Z,6.437
2019-02-25T09:36:01.000Z,6.5
2019-02-25T09:37:01.000Z,6.5
2019-02-25T09:38:02.000Z,6.5
2019-02-25T09:39:01.000Z,6.562
2019-02-25T09:40:02.000Z,6.625
2019-02-25T09:41:02.000Z,6.687
2019-02-25T09:42:01.000Z,6.687
2019-02-25T09:43:01.000Z,6.812
2019-02-25T09:44:02.000Z,6.812
2019-02-25T09:45:01.000Z,6.812
2019-02-25T09:46:01.000Z,6.875
2019-02-25T09:47:02.000Z,6.875
2019-02-25T09:48:01.000Z,6.875
2019-02-25T09:49:01.000Z,7
2019-02-25T09:50:02.000Z,7
2019-02-25T09:51:01.000Z,7
2019-02-25T09:52:01.000Z,7.062
2019-02-25T09:53:02.000Z,7.062
2019-02-25T09:54:01.000Z,7.125
2019-02-25T09:55:02.000Z,7.187
2019-02-25T09:56:01.000Z,7.312
2019-02-25T09:57:01.000Z,7.375
2019-02-25T09:58:02.000Z,7.437
2019-02-25T09:59:01.000Z,7.437
2019-02-25T10:00:01.000Z,7.437
2019-02-25T10:01:01.000Z,7.5
2019-02-25T10:02:01.000Z,7.5
2019-02-25T10:03:02.000Z,7.562
2019-02-25T10:04:01.000Z,7.562
2019-02-25T10:05:01.000Z,7.5
2019-02-25T10:06:02.000Z,7.5
2019-02-25T10:07:01.000Z,7.5
2019-02-25T10:08:01.000Z,7.437
2019-02-25T10:09:01.000Z,7.375
2019-02-25T10:10:02.000Z,7.437
2019-02-25T10:11:01.000Z,7.5
2019-02-25T10:12:02.000Z,7.5
2019-02-25T10:13:01.000Z,7.562
2019-02-25T10:14:01.000Z,7.625
2019-02-25T10:15:02.000Z,7.687
2019-02-25T10:16:01.000Z,7.75
2019-02-25T10:17:01.000Z,7.812
2019-02-25T10:18:01.000Z,7.812
2019-02-25T10:19:01.000Z,7.875
2019-02-25T10:20:01.000Z,7.875
2019-02-25T10:21:01.000Z,7.875
2019-02-25T10:22:01.000Z,7.875
2019-02-25T10:23:01.000Z,7.937
2019-02-25T10:24:01.000Z,8
2019-02-25T10:25:02.000Z,8.062
2019-02-25T10:26:01.000Z,8.125
2019-02-25T10:27:01.000Z,8.187
2019-02-25T10:28:02.000Z,8.25
2019-02-25T10:29:01.000Z,8.25
2019-02-25T10:30:02.000Z,8.312
2019-02-25T10:31:01.000Z,8.312
2019-02-25T10:32:01.000Z,8.375
2019-02-25T10:33:01.000Z,8.375
2019-02-25T10:34:01.000Z,8.437
2019-02-25T10:35:01.000Z,8.437
2019-02-25T10:36:02.000Z,8.5
2019-02-25T10:37:01.000Z,8.5
2019-02-25T10:38:01.000Z,8.5
2019-02-25T10:39:02.000Z,8.5
2019-02-25T10:40:01.000Z,8.5
2019-02-25T10:41:02.000Z,8.562
2019-02-25T10:42:01.000Z,8.562
2019-02-25T10:43:01.000Z,8.625
2019-02-25T10:44:01.000Z,8.687
2019-02-25T10:45:01.000Z,8.75
2019-02-25T10:46:01.000Z,8.75
2019-02-25T10:47:01.000Z,8.75
2019-02-25T10:48:01.000Z,8.812
2019-02-25T10:49:01.000Z,8.812
2019-02-25T10:50:02.000Z,8.875
2019-02-25T10:51:01.000Z,8.875
2019-02-25T10:52:02.000Z,8.875
2019-02-25T10:53:01.000Z,8.875
2019-02-25T10:54:02.000Z,8.937
2019-02-25T10:55:01.000Z,8.937
2019-02-25T10:56:01.000Z,8.937
2019-02-25T10:57:02.000Z,8.937
2019-02-25T10:58:01.000Z,8.937
2019-02-25T10:59:02.000Z,8.937
2019-02-25T11:00:01.000Z,9
2019-02-25T11:01:01.000Z,9
2019-02-25T11:02:01.000Z,9.062
2019-02-25T11:03:02.000Z,9.125
2019-02-25T11:04:01.000Z,9.125
2019-02-25T11:05:01.000Z,9.187
2019-02-25T11:06:02.000Z,9.187
2019-02-25T11:07:01.000Z,9.312
2019-02-25T11:08:01.000Z,9.312
2019-02-25T11:09:01.000Z,9.312
2019-02-25T11:10:01.000Z,9.375
2019-02-25T11:11:01.000Z,9.375
2019-02-25T11:12:01.000Z,9.375
2019-02-25T11:13:01.000Z,9.375
2019-02-25T11:14:01.000Z,9.437
2019-02-25T11:15:01.000Z,9.5
2019-02-25T11:16:01.000Z,9.562
2019-02-25T11:17:01.000Z,9.625
2019-02-25T11:18:01.000Z,9.625
2019-02-25T11:19:01.000Z,9.687
2019-02-25T11:20:02.000Z,9.75
2019-02-25T11:21:01.000Z,9.812
2019-02-25T11:22:01.000Z,9.812
2019-02-25T11:23:02.000Z,9.812
2019-02-25T11:24:01.000Z,9.812
2019-02-25T11:25:01.000Z,9.75
2019-02-25T11:26:02.000Z,9.75
2019-02-25T11:27:01.000Z,9.75
2019-02-25T11:28:01.000Z,9.75
2019-02-25T11:29:02.000Z,9.812
2019-02-25T11:30:01.000Z,9.812
2019-02-25T11:31:01.000Z,9.875
2019-02-25T11:32:01.000Z,9.937
2019-02-25T11:33:01.000Z,9.937
2019-02-25T11:34:01.000Z,9.937
2019-02-25T11:35:02.000Z,9.937
2019-02-25T11:36:01.000Z,10
2019-02-25T11:37:01.000Z,10
2019-02-25T11:38:01.000Z,10
2019-02-25T11:39:02.000Z,10
2019-02-25T11:40:01.000Z,10
2019-02-25T11:41:01.000Z,10.125
2019-02-25T11:42:01.000Z,10.062
2019-02-25T11:43:01.000Z,10.062
2019-02-25T11:44:01.000Z,10.062
2019-02-25T11:45:02.000Z,10.125
2019-02-25T11:46:01.000Z,10.125
2019-02-25T11:47:01.000Z,10.125
2019-02-25T11:48:01.000Z,10.187
2019-02-25T11:49:01.000Z,10.25
2019-02-25T11:50:01.000Z,10.25
2019-02-25T11:51:01.000Z,10.25
2019-02-25T11:52:01.000Z,10.25
2019-02-25T11:53:02.000Z,10.312
2019-02-25T11:54:01.000Z,10.312
2019-02-25T11:55:01.000Z,10.375
2019-02-25T11:56:02.000Z,10.375
2019-02-25T11:57:01.000Z,10.5
2019-02-25T11:58:01.000Z,10.5
2019-02-25T11:59:02.000Z,10.5
2019-02-25T12:00:01.000Z,10.5
2019-02-25T12:01:01.000Z,10.5
2019-02-25T12:02:01.000Z,10.5
2019-02-25T12:03:02.000Z,10.562
2019-02-25T12:04:01.000Z,10.562
2019-02-25T12:05:01.000Z,10.562
2019-02-25T12:06:02.000Z,10.562
2019-02-25T12:07:01.000Z,10.562
2019-02-25T12:08:01.000Z,10.625
2019-02-25T12:09:01.000Z,10.625
2019-02-25T12:10:02.000Z,10.687
2019-02-25T12:11:01.000Z,10.75
2019-02-25T12:12:01.000Z,10.812
2019-02-25T12:13:01.000Z,10.75
2019-02-25T12:14:02.000Z,10.75
2019-02-25T12:15:01.000Z,10.812
2019-02-25T12:16:01.000Z,10.812
2019-02-25T12:17:02.000Z,10.75
2019-02-25T12:18:01.000Z,10.812
2019-02-25T12:19:02.000Z,10.812
2019-02-25T12:20:01.000Z,10.75
2019-02-25T12:21:01.000Z,10.687
2019-02-25T12:22:02.000Z,10.687
2019-02-25T12:23:01.000Z,10.75
2019-02-25T12:24:01.000Z,10.812
2019-02-25T12:25:02.000Z,10.875
2019-02-25T12:26:01.000Z,10.937
2019-02-25T12:27:01.000Z,10.937
2019-02-25T12:28:02.000Z,10.937
2019-02-25T12:29:01.000Z,10.937
2019-02-25T12:30:01.000Z,10.937
2019-02-25T12:31:01.000Z,10.937
2019-02-25T12:32:01.000Z,10.937
2019-02-25T12:33:01.000Z,11
2019-02-25T12:34:02.000Z,10.937
2019-02-25T12:35:01.000Z,11
2019-02-25T12:36:01.000Z,11.062
2019-02-25T12:37:02.000Z,11.062
2019-02-25T12:38:01.000Z,11.125
2019-02-25T12:39:01.000Z,11.062
2019-02-25T12:40:02.000Z,11
2019-02-25T12:41:01.000Z,11.125
2019-02-25T12:42:01.000Z,11.125
2019-02-25T12:43:01.000Z,11.125
2019-02-25T12:44:01.000Z,11.187
2019-02-25T12:45:02.000Z,11.187
2019-02-25T12:46:01.000Z,11.25
2019-02-25T12:47:01.000Z,11.312
2019-02-25T12:48:02.000Z,11.312
2019-02-25T12:49:01.000Z,11.25
2019-02-25T12:50:01.000Z,11.25
2019-02-25T12:51:01.000Z,11.312
2019-02-25T12:52:02.000Z,11.312